Time;durP1;ratioP1;P1;durP2;ratioP2;P2;SDS_P1;SDS_P2;PMS_P1;PMS_P2;Temp;Humidity;BMP_temperature;BMP_pressure;BME280_temperature;BME280_humidity;BME280_pressure;Samples;Min_cycle;Max_cycle;Signal;HPM_P1;HPM_P2
2023/06/28 00:00:54;;;;;;;;;10.00;10.00;;;;;17.29;84.25;99474.34;6283759;20;2799211;-56
2023/06/28 00:03:22;;;;;;;;;9.33;9.33;;;;;17.07;84.70;99477.34;6281587;20;3491060;-51
2023/06/28 00:05:50;;;;;;;;;12.00;12.00;;;;;17.17;83.82;99478.22;6314781;20;2801341;-55
2023/06/28 00:08:18;;;;;;;;;12.67;11.67;;;;;17.31;83.21;99475.06;6282713;20;3527367;-48
2023/06/28 00:10:46;;;;;;;;;13.33;13.33;;;;;17.24;84.84;99471.19;6312813;20;2793250;-55
2023/06/28 00:13:14;;;;;;;;;14.00;11.50;;;;;16.99;85.44;99463.63;6317259;20;2798367;-54
2023/06/28 00:15:42;;;;;;;;;12.00;12.00;;;;;17.10;85.55;99466.22;6278318;20;3525500;-54
2023/06/28 00:18:11;;;;;;;;;11.00;11.00;;;;;17.10;85.75;99467.06;6311512;20;3524242;-54
2023/06/28 00:20:40;;;;;;;;;11.33;11.33;;;;;17.11;84.47;99473.34;6280545;20;3524223;-55
2023/06/28 00:23:09;;;;;;;;;14.00;12.00;;;;;16.97;86.15;99465.63;6315983;20;2813846;-53
2023/06/28 00:25:37;;;;;;;;;15.00;11.00;;;;;17.11;84.50;99471.50;6310529;20;3515892;-54
2023/06/28 00:28:05;;;;;;;;;13.00;11.00;;;;;17.00;85.72;99473.47;6313050;20;2790986;-53
2023/06/28 00:30:33;;;;;;;;;10.33;10.00;;;;;17.11;84.21;99473.34;6276533;20;2781656;-50
2023/06/28 00:33:00;;;;;;;;;13.00;11.50;;;;;16.94;85.45;99474.06;6315903;20;2791944;-50
2023/06/28 00:35:27;;;;;;;;;7.50;7.50;;;;;17.07;85.43;99471.91;6291308;20;2746096;-53
2023/06/28 00:37:55;;;;;;;;;14.00;14.00;;;;;16.97;85.47;99461.06;6282331;20;3537262;-52
2023/06/28 00:40:24;;;;;;;;;12.00;11.00;;;;;17.10;84.19;99474.34;6308558;20;3514965;-49
2023/06/28 00:42:52;;;;;;;;;14.33;12.00;;;;;16.96;84.39;99472.06;6310385;20;3539831;-53
2023/06/28 00:45:19;;;;;;;;;12.00;12.00;;;;;16.94;85.16;99464.06;6282543;20;2626359;-52
2023/06/28 00:47:48;;;;;;;;;14.00;14.00;;;;;16.76;86.31;99473.84;6279393;20;3524431;-51
2023/06/28 00:50:17;;;;;;;;;13.33;12.00;;;;;17.00;85.32;99468.06;6305955;20;3537764;-54
2023/06/28 00:52:45;;;;;;;;;12.00;12.00;;;;;16.86;85.73;99474.75;6277011;20;3513945;-52
2023/06/28 00:55:14;;;;;;;;;13.33;12.00;;;;;16.72;85.64;99478.69;6311569;20;3529542;-52
2023/06/28 00:57:42;;;;;;;;;9.67;9.67;;;;;16.84;85.09;99471.31;6280501;20;3497150;-54
2023/06/28 01:00:12;;;;;;;;;8.00;8.00;;;;;16.79;85.34;99477.16;6308093;20;2751324;-51
2023/06/28 01:02:41;;;;;;;;;8.00;8.00;;;;;16.86;85.09;99469.31;6286129;20;2752489;-52
2023/06/28 01:05:11;;;;;;;;;12.00;12.00;;;;;16.61;86.03;99465.22;6286882;20;2808878;-52
2023/06/28 01:07:40;;;;;;;;;11.33;10.67;;;;;16.88;85.86;99467.34;6316532;20;2794044;-56
2023/06/28 01:10:08;;;;;;;;;13.00;11.33;;;;;16.61;87.48;99459.81;6312141;20;3510784;-53
2023/06/28 01:12:38;;;;;;;;;11.67;11.00;;;;;16.64;87.65;99454.09;6315226;20;3510751;-53
2023/06/28 01:15:07;;;;;;;;;9.33;9.33;;;;;16.60;88.43;99452.69;6306246;20;3489032;-54
2023/06/28 01:17:34;;;;;;;;;9.00;9.00;;;;;16.64;89.16;99460.41;6323571;20;2748320;-53
2023/06/28 01:20:03;;;;;;;;;12.00;10.50;;;;;16.84;86.50;99466.75;6281215;20;2483605;-54
2023/06/28 01:22:32;;;;;;;;;12.33;12.33;;;;;16.66;86.13;99471.94;6283876;20;3508604;-50
2023/06/28 01:25:01;;;;;;;;;13.00;12.33;;;;;16.62;88.62;99469.66;6311711;20;2811743;-51
2023/06/28 01:27:29;;;;;;;;;12.33;12.33;;;;;16.48;88.02;99470.88;6313427;20;3528380;-51
2023/06/28 01:29:57;;;;;;;;;9.00;9.00;;;;;16.66;86.57;99471.09;6320130;20;2758566;-55
2023/06/28 01:32:24;;;;;;;;;16.00;12.00;;;;;16.67;86.10;99464.69;6292947;20;2686786;-53
2023/06/28 01:34:53;;;;;;;;;11.80;11.00;;;;;16.74;87.50;99460.41;6304932;20;2787996;-52
2023/06/28 01:37:22;;;;;;;;;10.00;10.00;;;;;16.68;86.85;99455.56;6287599;20;2784714;-54
2023/06/28 01:39:50;;;;;;;;;12.00;11.00;;;;;16.75;85.52;99467.56;6283368;20;3534734;-54
2023/06/28 01:42:19;;;;;;;;;11.67;11.67;;;;;16.59;86.68;99461.81;6282067;20;3515882;-52
2023/06/28 01:44:47;;;;;;;;;11.50;10.00;;;;;16.67;86.77;99476.38;6317477;20;2794078;-53
2023/06/28 01:47:14;;;;;;;;;11.00;11.00;;;;;16.84;85.42;99464.03;6288185;20;2796559;-54
2023/06/28 01:49:41;;;;;;;;;10.50;10.50;;;;;16.79;86.63;99466.28;6286264;20;2786735;-50
2023/06/28 01:52:09;;;;;;;;;11.00;11.00;;;;;16.54;87.43;99466.78;6282255;20;2791132;-55
2023/06/28 01:54:37;;;;;;;;;11.00;11.00;;;;;16.53;88.68;99473.19;6308704;20;3519006;-53
2023/06/28 01:57:05;;;;;;;;;11.00;11.00;;;;;16.38;90.46;99470.03;6310789;20;2488273;-53
2023/06/28 01:59:32;;;;;;;;;14.00;11.50;;;;;16.61;89.06;99476.06;6288109;20;2796127;-54
2023/06/28 02:01:59;;;;;;;;;13.00;11.00;;;;;16.48;89.47;99479.00;6288000;20;2796144;-54
2023/06/28 02:04:27;;;;;;;;;13.33;12.00;;;;;16.50;89.65;99476.19;6283847;20;2787866;-54
2023/06/28 02:06:56;;;;;;;;;9.00;9.00;;;;;16.42;90.15;99477.72;6321075;20;2745101;-54
2023/06/28 02:09:24;;;;;;;;;11.00;11.00;;;;;16.59;88.62;99472.66;6288700;20;2789926;-51
2023/06/28 02:11:51;;;;;;;;;15.00;11.00;;;;;16.58;89.18;99471.78;6287307;20;2808767;-54
2023/06/28 02:14:19;;;;;;;;;11.33;11.33;;;;;16.47;88.55;99477.31;6280784;20;3528496;-49
2023/06/28 02:16:46;;;;;;;;;11.00;11.00;;;;;16.34;90.90;99469.41;6312197;20;2483594;-51
2023/06/28 02:19:15;;;;;;;;;11.33;11.33;;;;;16.50;88.83;99458.06;6280396;20;3517993;-51
2023/06/28 02:21:43;;;;;;;;;11.33;11.33;;;;;16.25;90.52;99454.00;6314331;20;3517958;-55
2023/06/28 02:24:11;;;;;;;;;10.00;10.00;;;;;16.26;92.05;99450.28;6320018;20;2790981;-53
2023/06/28 02:26:39;;;;;;;;;12.67;11.33;;;;;16.29;90.75;99447.28;6283235;20;3525296;-51
2023/06/28 02:29:07;;;;;;;;;13.00;11.67;;;;;16.54;90.29;99450.53;6277966;20;3511753;-54
2023/06/28 02:31:35;;;;;;;;;12.00;12.00;;;;;16.50;89.10;99457.22;6311036;20;3399380;-53
2023/06/28 02:34:03;;;;;;;;;12.50;12.50;;;;;16.47;89.13;99455.63;6316143;20;2801499;-55
2023/06/28 02:36:30;;;;;;;;;12.00;10.00;;;;;16.57;87.89;99452.97;6286592;20;2785700;-54
2023/06/28 02:38:58;;;;;;;;;11.00;11.00;;;;;16.52;88.48;99455.22;6281801;20;3524219;-52
2023/06/28 02:41:26;;;;;;;;;12.00;12.00;;;;;16.35;89.00;99460.31;6315184;20;2810802;-53
2023/06/28 02:43:53;;;;;;;;;12.00;10.50;;;;;16.20;90.37;99457.09;6316671;20;2802378;-51
2023/06/28 02:46:22;;;;;;;;;13.33;12.00;;;;;16.38;89.63;99461.88;6287072;20;2812813;-52
2023/06/28 02:48:50;;;;;;;;;10.33;9.00;;;;;16.19;91.09;99454.50;6313081;20;3491930;-53
2023/06/28 02:51:17;;;;;;;;;11.50;10.50;;;;;16.28;89.30;99451.00;6310837;20;2788976;-51
2023/06/28 02:53:45;;;;;;;;;12.00;12.00;;;;;16.35;88.49;99454.91;6281362;20;3526457;-53
2023/06/28 02:56:15;;;;;;;;;9.00;9.00;;;;;16.46;87.02;99452.06;6280733;20;2759661;-56
2023/06/28 02:58:43;;;;;;;;;12.33;11.00;;;;;16.42;86.60;99456.03;6309250;20;3510706;-52
2023/06/28 03:01:11;;;;;;;;;13.00;10.67;;;;;16.31;87.06;99449.88;6310869;20;3520035;-51
2023/06/28 03:03:40;;;;;;;;;10.67;10.67;;;;;16.39;86.31;99440.06;6278631;20;3512850;-52
2023/06/28 03:06:07;;;;;;;;;14.00;12.00;;;;;16.53;86.42;99441.50;6313931;20;2806676;-53
2023/06/28 03:08:35;;;;;;;;;12.33;11.33;;;;;16.43;86.08;99440.66;6280221;20;2790946;-52
2023/06/28 03:11:03;;;;;;;;;9.67;9.67;;;;;16.38;86.52;99441.06;6309436;20;2771134;-54
2023/06/28 03:13:31;;;;;;;;;12.33;10.67;;;;;16.50;85.25;99446.38;6307029;20;3509617;-54
2023/06/28 03:16:00;;;;;;;;;14.67;10.67;;;;;16.53;85.69;99446.94;6309580;20;3510674;-52
2023/06/28 03:18:28;;;;;;;;;12.33;11.00;;;;;16.39;87.93;99448.19;6311514;20;3512806;-55
2023/06/28 03:20:56;;;;;;;;;11.67;10.67;;;;;16.53;86.00;99446.09;6309861;20;3511810;-55
2023/06/28 03:23:25;;;;;;;;;15.33;12.00;;;;;16.45;86.30;99450.34;6310867;20;3530555;-52
2023/06/28 03:25:52;;;;;;;;;10.50;10.50;;;;;16.30;86.82;99443.59;6283943;20;2791021;-55
2023/06/28 03:28:21;;;;;;;;;13.00;13.00;;;;;16.41;87.42;99438.06;6280015;20;3522260;-56
2023/06/28 03:30:48;;;;;;;;;12.00;11.00;;;;;16.36;88.03;99443.03;6314739;20;2789930;-54
2023/06/28 03:33:15;;;;;;;;;9.00;9.00;;;;;16.50;86.43;99446.38;6290024;20;2754609;-49
2023/06/28 03:35:43;;;;;;;;;11.00;11.00;;;;;16.51;86.19;99450.78;6281885;20;2786829;-54
2023/06/28 03:38:11;;;;;;;;;11.33;10.33;;;;;16.62;85.84;99456.13;6313476;20;3530436;-49
2023/06/28 03:40:39;;;;;;;;;13.33;10.00;;;;;16.64;85.76;99451.38;6311633;20;3504541;-52
2023/06/28 03:43:07;;;;;;;;;15.50;11.50;;;;;16.67;85.40;99451.13;6316716;20;2807719;-53
2023/06/28 03:45:36;;;;;;;;;10.80;10.80;;;;;16.60;85.75;99456.25;6305930;20;2779443;-53
2023/06/28 03:48:04;;;;;;;;;11.00;10.00;;;;;16.55;86.30;99460.38;6284147;20;2786868;-53
2023/06/28 03:50:32;;;;;;;;;10.00;10.00;;;;;16.38;86.94;99454.63;6281407;20;3503448;-54
2023/06/28 03:53:00;;;;;;;;;13.00;10.00;;;;;16.44;87.78;99451.34;6312145;20;3507638;-53
2023/06/28 03:55:29;;;;;;;;;9.20;9.20;;;;;16.60;86.37;99453.53;6337989;20;2754496;-52
2023/06/28 03:57:57;;;;;;;;;12.33;12.33;;;;;16.35;87.97;99449.47;6282469;20;2797244;-54
2023/06/28 04:00:26;;;;;;;;;10.67;10.67;;;;;16.28;88.42;99456.44;6308390;20;3515923;-54
2023/06/28 04:02:53;;;;;;;;;13.00;10.50;;;;;16.45;87.79;99452.19;6315924;20;2797134;-56
2023/06/28 04:05:21;;;;;;;;;9.50;9.50;;;;;16.61;86.34;99460.69;6287049;20;2773466;-53
2023/06/28 04:07:54;;;;;;;;;16.00;14.33;;;;;16.60;88.16;99452.69;6282884;20;3541971;-54
2023/06/28 04:10:21;;;;;;;;;10.00;10.00;;;;;16.50;87.89;99457.22;6284242;20;2786822;-52
2023/06/28 04:12:50;;;;;;;;;12.00;11.00;;;;;16.59;88.32;99456.41;6278489;20;3539836;-53
2023/06/28 04:15:18;;;;;;;;;12.00;12.00;;;;;16.77;87.00;99464.69;6313722;20;2801430;-59
2023/06/28 04:17:45;;;;;;;;;14.00;12.00;;;;;16.65;87.46;99466.69;6318751;20;1957721;-58
2023/06/28 04:20:13;;;;;;;;;10.00;9.67;;;;;16.72;87.65;99462.41;6276952;20;3495173;-56
2023/06/28 04:22:41;;;;;;;;;11.00;9.67;;;;;16.85;86.62;99463.03;6309269;20;3502362;-58
2023/06/28 04:25:09;;;;;;;;;12.00;12.00;;;;;16.90;85.90;99470.75;6311521;20;2785828;-57
2023/06/28 04:27:36;;;;;;;;;9.00;9.00;;;;;17.03;84.43;99465.06;6280449;20;2764872;-58
2023/06/28 04:30:05;;;;;;;;;12.50;11.00;;;;;17.02;84.46;99457.94;6282291;20;2789860;-58
2023/06/28 04:32:32;;;;;;;;;11.00;9.00;;;;;17.05;84.68;99463.91;6284405;20;2775651;-54
2023/06/28 04:35:01;;;;;;;;;13.00;13.00;;;;;17.19;85.51;99457.19;6279061;20;3529432;-57
2023/06/28 04:37:31;;;;;;;;;12.00;10.67;;;;;17.36;83.67;99462.94;6309158;20;2790077;-56
2023/06/28 04:40:03;;;;;;;;;10.20;10.20;;;;;17.37;82.31;99467.34;6332130;20;2783640;-54
2023/06/28 04:42:32;;;;;;;;;12.67;11.67;;;;;17.24;84.04;99464.91;6279342;20;3517962;-57
2023/06/28 04:45:00;;;;;;;;;12.33;9.67;;;;;17.39;82.58;99476.22;6278935;20;3505489;-57
2023/06/28 04:47:29;;;;;;;;;8.60;8.60;;;;;17.42;81.82;99475.94;6335452;20;2747175;-57
2023/06/28 04:49:58;;;;;;;;;8.80;8.80;;;;;17.47;83.10;99484.50;6334766;20;2760872;-57
2023/06/28 04:52:28;;;;;;;;;12.00;9.00;;;;;17.48;81.24;99481.66;6302490;20;2768167;-57
2023/06/28 04:54:56;;;;;;;;;11.33;11.00;;;;;17.49;81.44;99479.78;6276279;20;2798318;-56
2023/06/28 04:57:27;;;;;;;;;10.67;10.67;;;;;17.75;81.35;99475.47;6307156;20;3520186;-58
2023/06/28 04:59:57;;;;;;;;;13.00;11.00;;;;;17.93;80.04;99480.16;6308856;20;3510695;-56
2023/06/28 05:02:26;;;;;;;;;9.00;9.00;;;;;18.01;78.26;99474.88;6333759;20;2766924;-55
2023/06/28 05:04:54;;;;;;;;;11.67;8.00;;;;;18.25;79.16;99478.97;6277153;20;2759697;-57
2023/06/28 05:07:22;;;;;;;;;8.67;8.67;;;;;18.08;78.63;99483.28;6313178;20;2760662;-58
2023/06/28 05:09:49;;;;;;;;;7.50;7.50;;;;;18.00;80.94;99481.28;6307284;20;2741980;-59
2023/06/28 05:12:18;;;;;;;;;7.80;7.80;;;;;18.19;78.78;99483.97;6307148;20;2756721;-56
2023/06/28 05:14:48;;;;;;;;;8.40;7.60;;;;;18.24;78.66;99485.38;6293923;20;2752517;-58
2023/06/28 05:17:17;;;;;;;;;10.00;10.00;;;;;18.38;77.22;99487.63;6298435;20;2780646;-55
2023/06/28 05:19:45;;;;;;;;;8.67;8.67;;;;;18.15;79.76;99487.13;6278978;20;2748288;-60
2023/06/28 05:22:12;;;;;;;;;9.00;9.00;;;;;18.36;77.46;99485.03;6318123;20;2752374;-57
2023/06/28 05:24:41;;;;;;;;;8.40;7.20;;;;;18.57;75.52;99479.38;6306106;20;2746233;-57
2023/06/28 05:27:10;;;;;;;;;7.50;7.50;;;;;18.74;73.96;99490.44;6304136;20;2774345;-58
2023/06/28 05:29:40;;;;;;;;;7.40;7.40;;;;;18.81;73.89;99491.59;6336057;20;2748308;-57
2023/06/28 05:32:09;;;;;;;;;8.20;8.20;;;;;18.81;73.86;99487.00;6337590;20;2740018;-57
2023/06/28 05:34:38;;;;;;;;;7.60;7.60;;;;;18.94;73.48;99494.81;6333590;20;2744094;-56
2023/06/28 05:37:07;;;;;;;;;8.80;8.00;;;;;18.89;72.15;99486.25;6337942;20;2767008;-59
2023/06/28 05:39:36;;;;;;;;;6.80;6.80;;;;;19.06;73.35;99493.59;6305534;20;2745084;-57
2023/06/28 05:42:05;;;;;;;;;7.75;5.75;;;;;19.04;71.25;99487.44;6335597;20;2049349;-57
2023/06/28 05:44:34;;;;;;;;;8.40;7.20;;;;;19.30;69.84;99492.97;6335002;20;2744057;-57
2023/06/28 05:47:02;;;;;;;;;9.33;8.00;;;;;19.18;70.67;99494.19;6309612;20;2768006;-57
2023/06/28 05:49:34;;;;;;;;;9.60;7.00;;;;;19.24;70.40;99498.16;6336011;20;2757683;-59
2023/06/28 05:52:05;;;;;;;;;7.40;6.80;;;;;19.10;70.05;99496.00;6308170;20;2744172;-57
2023/06/28 05:54:33;;;;;;;;;6.67;6.67;;;;;19.15;70.34;99493.66;6286484;20;2737802;-58
2023/06/28 05:57:02;;;;;;;;;5.60;5.60;;;;;19.37;69.22;99493.19;6343356;20;2745117;-57
2023/06/28 05:59:31;;;;;;;;;8.67;8.67;;;;;19.01;69.84;99504.06;6315867;20;2748296;-54
2023/06/28 06:02:00;;;;;;;;;8.40;6.80;;;;;18.98;71.45;99493.47;6340810;20;2743081;-57
2023/06/28 06:04:29;;;;;;;;;8.40;8.40;;;;;19.12;71.79;99502.16;6340498;20;2746278;-57
2023/06/28 06:06:57;;;;;;;;;7.00;6.33;;;;;19.16;70.09;99507.09;6318080;20;2735727;-58
2023/06/28 06:09:28;;;;;;;;;6.00;6.00;;;;;19.34;68.52;99498.97;6340262;20;2748198;-57
2023/06/28 06:11:56;;;;;;;;;7.67;7.67;;;;;19.26;68.98;99497.00;6283503;20;2750298;-58
2023/06/28 06:14:25;;;;;;;;;7.80;6.60;;;;;19.43;69.50;99508.94;6338535;20;2756570;-57
2023/06/28 06:16:54;;;;;;;;;7.20;6.60;;;;;19.61;67.85;99502.59;6309664;20;2746168;-57
2023/06/28 06:19:23;;;;;;;;;6.00;6.00;;;;;19.83;68.51;99510.31;6309636;20;2739894;-58
2023/06/28 06:21:52;;;;;;;;;6.60;6.60;;;;;19.71;67.41;99515.16;6341589;20;2739885;-57
2023/06/28 06:24:21;;;;;;;;;7.00;7.00;;;;;19.63;67.72;99520.50;6309902;20;2748230;-57
2023/06/28 06:26:50;;;;;;;;;9.00;7.00;;;;;20.25;66.52;99531.41;6311645;20;2754470;-53
2023/06/28 06:29:19;;;;;;;;;6.80;6.00;;;;;20.57;64.82;99530.78;6308819;20;2744113;-57
2023/06/28 06:31:48;;;;;;;;;6.40;5.60;;;;;20.36;66.12;99524.81;6308704;20;2740036;-57
2023/06/28 06:34:17;;;;;;;;;8.20;7.40;;;;;20.28;64.35;99525.63;6336981;20;2744120;-58
2023/06/28 06:36:46;;;;;;;;;6.20;5.60;;;;;20.06;65.73;99537.91;6310182;20;2744049;-57
2023/06/28 06:39:15;;;;;;;;;3.00;2.80;;;;;19.90;65.14;99545.94;6343271;20;2754439;-57
2023/06/28 06:41:44;;;;;;;;;6.00;6.00;;;;;20.15;64.26;99545.13;6309858;20;2737948;-57
2023/06/28 06:44:14;;;;;;;;;6.00;6.00;;;;;20.11;64.86;99561.97;6341771;20;2734733;-57
2023/06/28 06:46:43;;;;;;;;;5.60;5.60;;;;;20.01;65.59;99550.28;6341941;20;2748209;-57
2023/06/28 06:49:12;;;;;;;;;7.60;6.00;;;;;20.42;64.05;99547.88;6308368;20;2732661;-57
2023/06/28 06:51:41;;;;;;;;;4.00;2.60;;;;;20.85;62.55;99554.25;6341169;20;2733699;-58
2023/06/28 06:54:10;;;;;;;;;6.00;6.00;;;;;20.99;60.46;99550.91;6339627;20;2735760;-58
2023/06/28 06:56:39;;;;;;;;;4.80;4.60;;;;;21.12;59.69;99550.47;6342466;20;2733663;-58
2023/06/28 06:59:08;;;;;;;;;3.60;3.60;;;;;20.73;58.29;99557.28;6339871;20;2739011;-57
2023/06/28 07:01:37;;;;;;;;;4.40;4.40;;;;;20.99;59.76;99561.84;6344604;20;2734622;-58
2023/06/28 07:04:06;;;;;;;;;5.40;4.60;;;;;20.92;59.81;99571.69;6340598;20;2743003;-58
2023/06/28 07:06:37;;;;;;;;;4.71;4.71;;;;;20.71;58.81;99563.91;6359670;20;3463802;-57
2023/06/28 07:09:06;;;;;;;;;4.40;4.00;;;;;20.13;60.21;99554.50;6338688;20;2745078;-57
2023/06/28 07:11:35;;;;;;;;;4.20;4.20;;;;;20.19;60.22;99559.28;6310290;20;2734770;-58
2023/06/28 07:14:04;;;;;;;;;5.20;4.40;;;;;20.46;59.50;99562.88;6334547;20;2744045;-61
2023/06/28 07:16:32;;;;;;;;;5.67;4.00;;;;;20.32;60.51;99559.72;6315603;20;2744090;-57
2023/06/28 07:19:02;;;;;;;;;5.33;3.67;;;;;20.65;59.66;99559.13;6312893;20;2739895;-58
2023/06/28 07:21:31;;;;;;;;;6.00;4.60;;;;;20.59;59.94;99560.63;6343387;20;2738869;-56
2023/06/28 07:24:00;;;;;;;;;3.80;3.80;;;;;20.36;60.53;99569.31;6338038;20;2742009;-58
2023/06/28 07:26:28;;;;;;;;;5.00;3.67;;;;;20.66;59.00;99553.47;6317971;20;2742959;-58
2023/06/28 07:28:58;;;;;;;;;4.00;4.00;;;;;20.83;57.58;99563.47;6339627;20;1921294;-58
2023/06/28 07:31:27;;;;;;;;;3.00;3.00;;;;;20.87;59.37;99580.38;6344362;20;2738815;-57
2023/06/28 07:33:56;;;;;;;;;9.67;3.67;;;;;21.05;58.66;99566.63;6314889;20;2764951;-58
2023/06/28 07:36:25;;;;;;;;;2.20;2.20;;;;;21.50;57.01;99573.63;6338402;20;2752373;-58
2023/06/28 07:38:54;;;;;;;;;2.40;2.40;;;;;21.48;56.27;99583.84;6306952;20;2731595;-56
2023/06/28 07:41:23;;;;;;;;;4.00;3.60;;;;;21.39;56.98;99573.94;6340044;20;2748239;-57
2023/06/28 07:43:52;;;;;;;;;4.00;3.20;;;;;20.99;55.21;99572.75;6307401;20;2750318;-58
2023/06/28 07:46:21;;;;;;;;;3.20;3.00;;;;;21.21;55.73;99572.13;6310490;20;2742020;-58
2023/06/28 07:48:51;;;;;;;;;2.20;0.80;;;;;21.42;54.45;99568.13;6337876;20;2748232;-58
2023/06/28 07:51:19;;;;;;;;;2.00;2.00;;;;;21.12;54.84;99572.31;6321895;20;2729448;-58
2023/06/28 07:53:47;;;;;;;;;2.67;2.67;;;;;21.24;54.81;99577.25;6316380;20;2739878;-58
2023/06/28 07:56:16;;;;;;;;;2.20;2.20;;;;;21.05;56.20;99578.41;6339787;20;2747159;-57
2023/06/28 07:58:46;;;;;;;;;2.60;2.60;;;;;21.12;55.34;99577.75;6337925;20;2748239;-57
2023/06/28 08:01:15;;;;;;;;;2.00;2.00;;;;;20.61;54.47;99585.84;6317295;20;2743038;-59
2023/06/28 08:03:44;;;;;;;;;2.20;2.20;;;;;20.79;56.48;99583.91;6337609;20;2724347;-57
2023/06/28 08:06:14;;;;;;;;;3.60;2.20;;;;;20.58;55.94;99591.63;6343836;20;2736855;-58
2023/06/28 08:08:42;;;;;;;;;1.67;1.67;;;;;20.87;54.45;99593.16;6317941;20;2744106;-58
2023/06/28 08:11:10;;;;;;;;;3.33;2.00;;;;;21.04;54.08;99593.09;6316803;20;2746306;-58
2023/06/28 08:13:38;;;;;;;;;1.67;1.67;;;;;20.83;53.53;99593.50;6319113;20;2744003;-54
2023/06/28 08:16:06;;;;;;;;;1.67;1.67;;;;;20.78;55.70;99589.53;6317974;20;2721255;-58
2023/06/28 08:18:35;;;;;;;;;1.00;1.00;;;;;21.15;55.27;99586.47;6339040;20;2744127;-57
2023/06/28 08:21:05;;;;;;;;;4.20;3.60;;;;;21.41;54.99;99597.34;6338780;20;2747161;-58
2023/06/28 08:23:33;;;;;;;;;2.00;1.00;;;;;21.12;55.56;99584.06;6316613;20;2750326;-58
2023/06/28 08:26:02;;;;;;;;;2.40;2.40;;;;;21.60;54.89;99587.13;6340762;20;2732594;-58
2023/06/28 08:28:31;;;;;;;;;4.00;2.00;;;;;21.73;53.45;99592.13;6313428;20;2738900;-58
2023/06/28 08:31:00;;;;;;;;;5.00;3.67;;;;;21.65;53.63;99590.22;6316644;20;2748331;-58
2023/06/28 08:33:28;;;;;;;;;2.67;2.67;;;;;21.64;53.22;99586.66;6317934;20;2737862;-57
2023/06/28 08:35:57;;;;;;;;;2.00;2.00;;;;;21.63;52.94;99592.25;6339498;20;2726349;-58
2023/06/28 08:38:25;;;;;;;;;2.33;2.33;;;;;21.84;52.43;99586.31;6311418;20;2746288;-57
2023/06/28 08:40:54;;;;;;;;;1.60;1.60;;;;;21.88;51.18;99576.72;6341836;20;2739981;-58
2023/06/28 08:43:24;;;;;;;;;2.60;1.60;;;;;22.17;51.47;99581.72;6341245;20;2738966;-58
2023/06/28 08:45:52;;;;;;;;;4.00;2.00;;;;;23.00;49.92;99584.13;6314152;20;2733647;-59
2023/06/28 08:48:21;;;;;;;;;2.00;2.00;;;;;23.64;47.03;99580.38;6337732;20;2735733;-60
2023/06/28 08:50:59;;;;;;;;;3.80;1.60;;;;;23.00;48.28;99591.50;6335230;20;2746126;-59
2023/06/28 08:53:29;;;;;;;;;1.40;1.40;;;;;22.92;48.77;99589.63;6334863;20;2750313;-59
2023/06/28 08:55:59;;;;;;;;;1.67;1.67;;;;;23.47;49.63;99584.28;6284277;20;2727440;-56
2023/06/28 08:58:29;;;;;;;;;0.67;0.67;;;;;22.94;46.42;99575.75;6312658;20;2737797;-59
2023/06/28 09:00:59;;;;;;;;;3.67;1.67;;;;;23.04;46.37;99578.31;6312296;20;2756670;-59
2023/06/28 09:03:30;;;;;;;;;1.20;1.20;;;;;23.17;46.89;99573.09;6337841;20;2744564;-58
2023/06/28 09:06:00;;;;;;;;;1.00;1.00;;;;;22.82;47.60;99578.00;6300898;20;2747199;-59
2023/06/28 09:08:29;;;;;;;;;3.20;3.00;;;;;22.30;49.71;99579.34;6338302;20;2744064;-59
2023/06/28 09:11:02;;;;;;;;;0.80;0.80;;;;;22.21;48.85;99579.50;6337087;20;2730678;-58
2023/06/28 09:13:32;;;;;;;;;1.60;1.60;;;;;22.46;49.25;99586.66;6334372;20;2746230;-59
2023/06/28 09:16:01;;;;;;;;;1.00;1.00;;;;;22.20;47.92;99583.28;6314048;20;2732719;-59
2023/06/28 09:18:30;;;;;;;;;2.00;2.00;;;;;22.52;47.93;99582.38;6338338;20;2750316;-59
2023/06/28 09:20:59;;;;;;;;;3.00;3.00;;;;;22.11;48.52;99585.97;6308247;20;2741005;-59
2023/06/28 09:23:30;;;;;;;;;2.67;2.67;;;;;22.39;47.20;99585.66;6284638;20;2734794;-59
2023/06/28 09:25:58;;;;;;;;;2.00;2.00;;;;;22.87;48.22;99572.88;6317157;20;2738862;-57
2023/06/28 09:28:33;;;;;;;;;1.00;1.00;;;;;22.71;47.81;99581.13;6341569;20;2744177;-59
2023/06/28 09:31:05;;;;;;;;;0.00;0.00;;;;;23.35;46.62;99576.44;6312392;20;2739931;-59
2023/06/28 09:33:34;;;;;;;;;2.00;1.80;;;;;23.33;46.30;99572.16;6342861;20;2756531;-59
2023/06/28 09:36:03;;;;;;;;;1.60;1.60;;;;;22.70;46.53;99580.28;6309061;20;2736760;-55
2023/06/28 09:38:33;;;;;;;;;2.80;1.00;;;;;23.02;46.71;99572.19;6341917;20;2750375;-60
2023/06/28 09:41:02;;;;;;;;;3.67;1.67;;;;;23.42;45.32;99585.66;6291085;20;2744205;-57
2023/06/28 09:43:33;;;;;;;;;1.60;1.60;;;;;23.12;46.48;99581.03;6343710;20;2739942;-56
2023/06/28 09:46:16;;;;;;;;;1.00;1.00;;;;;23.22;45.70;99578.91;6344269;20;2744029;-59
2023/06/28 09:48:48;;;;;;;;;1.00;1.00;;;;;23.21;44.97;99571.72;6342685;20;2750302;-58
2023/06/28 09:51:17;;;;;;;;;3.00;3.00;;;;;23.37;47.03;99571.63;6290192;20;2725295;-59
2023/06/28 09:53:50;;;;;;;;;1.00;1.00;;;;;23.64;47.30;99574.91;6340751;20;2750289;-59
2023/06/28 09:56:38;;;;;;;;;4.60;2.80;;;;;23.55;46.18;99573.25;6310809;20;2739881;-58
2023/06/28 09:59:08;;;;;;;;;2.00;2.00;;;;;23.60;47.15;99577.16;6337391;20;2728419;-59
2023/06/28 10:01:49;;;;;;;;;3.40;2.40;;;;;22.64;47.42;99570.00;6343032;20;2748242;-59
2023/06/28 10:04:19;;;;;;;;;2.00;2.00;;;;;23.26;49.20;99566.56;6287933;20;2744029;-58
2023/06/28 10:06:51;;;;;;;;;4.00;2.60;;;;;23.91;45.73;99569.94;6338941;20;2732598;-59
2023/06/28 10:09:22;;;;;;;;;7.00;3.80;;;;;23.68;48.20;99570.78;6337775;20;2752780;-56
2023/06/28 10:11:51;;;;;;;;;3.60;2.00;;;;;23.64;48.25;99573.03;6311119;20;2745086;-59
2023/06/28 10:14:22;;;;;;;;;4.40;4.40;;;;;24.33;46.28;99569.41;6337251;20;2749352;-59
2023/06/28 10:16:55;;;;;;;;;2.00;2.00;;;;;24.49;46.72;99568.44;6310709;20;2746151;-60
2023/06/28 10:19:25;;;;;;;;;4.00;4.00;;;;;23.09;48.55;99551.22;6340420;20;2736209;-59
2023/06/28 10:21:55;;;;;;;;;4.00;3.00;;;;;23.49;48.00;99558.41;6341703;20;2744211;-59
2023/06/28 10:24:31;;;;;;;;;4.60;4.60;;;;;24.17;48.61;99551.22;6311087;20;2744114;-59
2023/06/28 10:27:06;;;;;;;;;5.50;3.67;;;;;23.74;50.09;99541.81;6362469;20;1785785;-59
2023/06/28 10:29:36;;;;;;;;;4.00;4.00;;;;;24.17;50.29;99548.47;6335117;20;2760740;-59
2023/06/28 10:32:07;;;;;;;;;4.00;4.00;;;;;23.93;48.01;99543.19;6340147;20;2749375;-59
2023/06/28 10:34:36;;;;;;;;;6.67;4.00;;;;;23.93;50.08;99537.69;6286206;20;2732584;-58
2023/06/28 10:37:05;;;;;;;;;4.00;4.00;;;;;24.64;49.56;99541.81;6337891;20;2753401;-59
2023/06/28 10:39:38;;;;;;;;;6.40;4.00;;;;;24.77;46.77;99551.31;6304668;20;2741966;-59
2023/06/28 10:42:07;;;;;;;;;5.80;5.40;;;;;24.81;46.12;99536.16;6308778;20;2736742;-60
2023/06/28 10:44:57;;;;;;;;;4.40;4.40;;;;;24.85;46.20;99531.97;6307176;20;2736737;-59
2023/06/28 10:47:26;;;;;;;;;4.33;4.33;;;;;25.08;46.71;99526.38;6285397;20;2726484;-58
2023/06/28 10:50:15;;;;;;;;;5.00;5.00;;;;;23.49;48.87;99524.66;6340756;20;2742995;-55
2023/06/28 10:52:46;;;;;;;;;4.60;4.60;;;;;24.67;47.56;99518.63;6309436;20;2735691;-58
2023/06/28 10:55:32;;;;;;;;;6.00;6.00;;;;;24.93;45.45;99512.63;6340228;20;2735694;-59
2023/06/28 10:58:10;;;;;;;;;5.60;4.80;;;;;24.47;46.80;99510.97;6338968;20;2731634;-59
2023/06/28 11:00:44;;;;;;;;;6.20;4.80;;;;;23.94;45.82;99514.75;6343349;20;2746132;-60
2023/06/28 11:03:14;;;;;;;;;4.00;4.00;;;;;24.25;44.87;99509.97;6310419;20;2737838;-59
2023/06/28 11:05:45;;;;;;;;;2.00;2.00;;;;;25.11;42.18;99510.34;6310840;20;2748358;-57
2023/06/28 11:08:16;;;;;;;;;3.20;2.00;;;;;25.44;42.48;99509.91;6343155;20;2744161;-60
2023/06/28 11:10:48;;;;;;;;;2.00;2.00;;;;;24.35;41.62;99497.84;6312517;20;2702370;-60
2023/06/28 11:13:39;;;;;;;;;1.00;1.00;;;;;23.42;43.28;99492.47;6341701;20;2730587;-59
2023/06/28 11:16:11;;;;;;;;;2.33;2.33;;;;;23.11;44.50;99494.41;6286909;20;2739867;-58
2023/06/28 11:18:40;;;;;;;;;2.00;2.00;;;;;23.76;44.18;99493.97;6339748;20;2731531;-60
2023/06/28 11:21:18;;;;;;;;;1.80;1.80;;;;;23.19;45.23;99489.72;6338467;20;2732587;-59